sensor_id;sensor_type;location;lat;lon;timestamp;pressure;altitude;pressure_sealevel;temperature;humidity
48364;BME280;34170;54.364;18.582;2023-05-24T00:01:12;100035.38;;;19.00;74.81
48364;BME280;34170;54.364;18.582;2023-05-24T00:03:40;100031.41;;;18.96;74.87
48364;BME280;34170;54.364;18.582;2023-05-24T00:06:08;100031.59;;;18.95;77.63
48364;BME280;34170;54.364;18.582;2023-05-24T00:08:35;100029.03;;;18.80;80.23
48364;BME280;34170;54.364;18.582;2023-05-24T00:11:03;100030.69;;;18.81;80.39
48364;BME280;34170;54.364;18.582;2023-05-24T00:13:30;100035.72;;;18.77;80.52
48364;BME280;34170;54.364;18.582;2023-05-24T00:15:58;100037.97;;;18.67;82.67
48364;BME280;34170;54.364;18.582;2023-05-24T00:18:25;100029.81;;;18.60;83.34
48364;BME280;34170;54.364;18.582;2023-05-24T00:20:53;100020.78;;;18.53;82.78
48364;BME280;34170;54.364;18.582;2023-05-24T00:23:24;100032.06;;;18.50;83.21
48364;BME280;34170;54.364;18.582;2023-05-24T00:25:52;100021.16;;;18.43;83.10
48364;BME280;34170;54.364;18.582;2023-05-24T00:28:19;100019.47;;;18.42;83.21
48364;BME280;34170;54.364;18.582;2023-05-24T00:30:47;100015.25;;;18.40;83.50
48364;BME280;34170;54.364;18.582;2023-05-24T00:33:14;100019.47;;;18.42;83.08
48364;BME280;34170;54.364;18.582;2023-05-24T00:35:42;100007.28;;;18.32;82.76
48364;BME280;34170;54.364;18.582;2023-05-24T00:38:09;100010.59;;;18.27;82.90
48364;BME280;34170;54.364;18.582;2023-05-24T00:40:37;100004.72;;;18.23;83.54
48364;BME280;34170;54.364;18.582;2023-05-24T00:43:04;99998.63;;;18.15;84.73
48364;BME280;34170;54.364;18.582;2023-05-24T00:45:32;100000.63;;;18.41;80.86
48364;BME280;34170;54.364;18.582;2023-05-24T00:48:00;100006.84;;;18.28;82.96
48364;BME280;34170;54.364;18.582;2023-05-24T00:50:28;99998.66;;;17.86;85.84
48364;BME280;34170;54.364;18.582;2023-05-24T00:53:02;100011.47;;;17.93;85.04
48364;BME280;34170;54.364;18.582;2023-05-24T00:55:30;100008.81;;;17.78;87.50
48364;BME280;34170;54.364;18.582;2023-05-24T00:57:57;100008.88;;;17.84;86.15
48364;BME280;34170;54.364;18.582;2023-05-24T01:00:26;100017.59;;;18.01;84.89
48364;BME280;34170;54.364;18.582;2023-05-24T01:02:53;100009.88;;;18.05;86.67
48364;BME280;34170;54.364;18.582;2023-05-24T01:05:21;100008.81;;;17.99;87.24
48364;BME280;34170;54.364;18.582;2023-05-24T01:13:14;99999.59;;;18.00;87.83
48364;BME280;34170;54.364;18.582;2023-05-24T01:18:31;99998.13;;;17.98;89.26
48364;BME280;34170;54.364;18.582;2023-05-24T01:24:06;100010.22;;;17.95;90.27
48364;BME280;34170;54.364;18.582;2023-05-24T01:26:45;100003.06;;;17.87;90.63
48364;BME280;34170;54.364;18.582;2023-05-24T01:29:15;100003.53;;;17.91;91.10
48364;BME280;34170;54.364;18.582;2023-05-24T01:31:43;100007.94;;;17.92;90.55
48364;BME280;34170;54.364;18.582;2023-05-24T01:34:11;100008.31;;;17.89;90.77
48364;BME280;34170;54.364;18.582;2023-05-24T01:36:39;100007.88;;;17.85;92.29
48364;BME280;34170;54.364;18.582;2023-05-24T01:39:06;100008.63;;;17.79;92.10
48364;BME280;34170;54.364;18.582;2023-05-24T01:42:22;100008.16;;;17.69;92.57
48364;BME280;34170;54.364;18.582;2023-05-24T01:50:36;100016.72;;;17.94;87.88
48364;BME280;34170;54.364;18.582;2023-05-24T01:53:08;100019.00;;;17.90;88.36
48364;BME280;34170;54.364;18.582;2023-05-24T01:55:39;100005.41;;;17.90;88.70
48364;BME280;34170;54.364;18.582;2023-05-24T01:58:08;100029.81;;;17.84;90.20
48364;BME280;34170;54.364;18.582;2023-05-24T02:00:39;100016.88;;;17.86;88.31
48364;BME280;34170;54.364;18.582;2023-05-24T02:03:08;100016.59;;;17.81;88.49
48364;BME280;34170;54.364;18.582;2023-05-24T02:05:37;100017.22;;;17.83;87.91
48364;BME280;34170;54.364;18.582;2023-05-24T02:08:05;100029.66;;;17.85;86.82
48364;BME280;34170;54.364;18.582;2023-05-24T02:10:32;100035.63;;;17.81;87.05
48364;BME280;34170;54.364;18.582;2023-05-24T02:13:00;100045.28;;;17.55;86.38
48364;BME280;34170;54.364;18.582;2023-05-24T02:15:27;100054.63;;;17.46;83.75
48364;BME280;34170;54.364;18.582;2023-05-24T02:17:57;100054.59;;;17.67;82.92
48364;BME280;34170;54.364;18.582;2023-05-24T02:20:29;100053.44;;;17.83;82.16
48364;BME280;34170;54.364;18.582;2023-05-24T02:22:58;100054.19;;;17.92;82.36
48364;BME280;34170;54.364;18.582;2023-05-24T02:25:26;100050.44;;;18.00;82.55
48364;BME280;34170;54.364;18.582;2023-05-24T02:27:54;100062.00;;;18.08;80.26
48364;BME280;34170;54.364;18.582;2023-05-24T02:30:21;100057.78;;;18.06;79.36
48364;BME280;34170;54.364;18.582;2023-05-24T02:32:49;100051.97;;;18.09;78.85
48364;BME280;34170;54.364;18.582;2023-05-24T02:35:16;100051.97;;;18.09;81.52
48364;BME280;34170;54.364;18.582;2023-05-24T02:37:45;100054.06;;;18.07;81.59
48364;BME280;34170;54.364;18.582;2023-05-24T02:40:12;100048.56;;;18.00;82.00
48364;BME280;34170;54.364;18.582;2023-05-24T02:42:40;100060.88;;;17.96;84.21
48364;BME280;34170;54.364;18.582;2023-05-24T02:45:08;100057.53;;;17.94;83.38
48364;BME280;34170;54.364;18.582;2023-05-24T02:47:35;100050.16;;;17.88;83.67
48364;BME280;34170;54.364;18.582;2023-05-24T02:50:03;100044.97;;;17.93;85.57
48364;BME280;34170;54.364;18.582;2023-05-24T02:52:31;100040.19;;;17.73;82.80
48364;BME280;34170;54.364;18.582;2023-05-24T02:54:59;100042.56;;;17.83;80.60
48364;BME280;34170;54.364;18.582;2023-05-24T02:57:26;100039.75;;;17.98;82.09
48364;BME280;34170;54.364;18.582;2023-05-24T02:59:54;100041.13;;;18.16;79.10
48364;BME280;34170;54.364;18.582;2023-05-24T03:02:22;100042.41;;;18.20;78.63
48364;BME280;34170;54.364;18.582;2023-05-24T03:04:49;100042.63;;;18.25;78.52
48364;BME280;34170;54.364;18.582;2023-05-24T03:07:18;100034.81;;;18.08;78.48
48364;BME280;34170;54.364;18.582;2023-05-24T03:09:45;100047.44;;;18.23;76.56
48364;BME280;34170;54.364;18.582;2023-05-24T03:12:13;100036.38;;;18.31;76.80
48364;BME280;34170;54.364;18.582;2023-05-24T03:14:41;100037.91;;;18.40;76.14
48364;BME280;34170;54.364;18.582;2023-05-24T03:17:08;100045.84;;;18.35;73.75
48364;BME280;34170;54.364;18.582;2023-05-24T03:19:36;100047.13;;;18.46;73.05
48364;BME280;34170;54.364;18.582;2023-05-24T03:22:04;100051.31;;;18.48;72.44
48364;BME280;34170;54.364;18.582;2023-05-24T03:24:31;100045.09;;;18.55;71.06
48364;BME280;34170;54.364;18.582;2023-05-24T03:27:00;100044.88;;;18.63;71.08
48364;BME280;34170;54.364;18.582;2023-05-24T03:29:28;100044.28;;;18.67;70.34
48364;BME280;34170;54.364;18.582;2023-05-24T03:31:56;100048.47;;;18.70;70.42
48364;BME280;34170;54.364;18.582;2023-05-24T03:34:24;100059.00;;;18.80;70.21
48364;BME280;34170;54.364;18.582;2023-05-24T03:36:51;100070.66;;;18.60;73.34
48364;BME280;34170;54.364;18.582;2023-05-24T03:39:18;100061.38;;;18.48;73.87
48364;BME280;34170;54.364;18.582;2023-05-24T03:41:54;100056.19;;;18.60;73.98
48364;BME280;34170;54.364;18.582;2023-05-24T03:44:21;100055.53;;;18.58;73.97
48364;BME280;34170;54.364;18.582;2023-05-24T03:46:49;100063.09;;;18.56;74.27
48364;BME280;34170;54.364;18.582;2023-05-24T03:49:16;100061.19;;;18.50;75.63
48364;BME280;34170;54.364;18.582;2023-05-24T03:51:44;100063.03;;;18.42;78.03
48364;BME280;34170;54.364;18.582;2023-05-24T03:54:12;100056.97;;;18.40;78.75
48364;BME280;34170;54.364;18.582;2023-05-24T03:56:40;100053.03;;;18.50;78.31
48364;BME280;34170;54.364;18.582;2023-05-24T03:59:08;100055.53;;;18.51;76.59
48364;BME280;34170;54.364;18.582;2023-05-24T04:01:35;100049.06;;;18.59;73.72
48364;BME280;34170;54.364;18.582;2023-05-24T04:04:03;100047.97;;;18.46;73.13
48364;BME280;34170;54.364;18.582;2023-05-24T04:06:31;100050.34;;;18.63;71.67
48364;BME280;34170;54.364;18.582;2023-05-24T04:08:58;100049.97;;;18.79;70.35
48364;BME280;34170;54.364;18.582;2023-05-24T04:11:28;100051.84;;;18.79;69.27
48364;BME280;34170;54.364;18.582;2023-05-24T04:13:56;100048.56;;;18.83;69.83
48364;BME280;34170;54.364;18.582;2023-05-24T04:16:24;100056.94;;;18.82;68.55
48364;BME280;34170;54.364;18.582;2023-05-24T04:18:54;100065.28;;;18.80;68.79
48364;BME280;34170;54.364;18.582;2023-05-24T04:21:22;100061.06;;;18.71;69.45
48364;BME280;34170;54.364;18.582;2023-05-24T04:23:50;100063.59;;;18.79;69.67
48364;BME280;34170;54.364;18.582;2023-05-24T04:26:17;100057.69;;;18.62;69.83
48364;BME280;34170;54.364;18.582;2023-05-24T04:28:45;100072.41;;;18.81;69.72
48364;BME280;34170;54.364;18.582;2023-05-24T04:31:13;100062.56;;;18.80;70.07
48364;BME280;34170;54.364;18.582;2023-05-24T04:33:42;100061.84;;;18.65;71.00
48364;BME280;34170;54.364;18.582;2023-05-24T04:36:10;100063.91;;;18.50;72.04
48364;BME280;34170;54.364;18.582;2023-05-24T04:38:38;100076.22;;;18.45;72.85
48364;BME280;34170;54.364;18.582;2023-05-24T04:41:07;100075.00;;;18.48;72.03
48364;BME280;34170;54.364;18.582;2023-05-24T04:43:34;100083.66;;;18.65;71.19
48364;BME280;34170;54.364;18.582;2023-05-24T04:46:02;100079.25;;;18.64;71.06
48364;BME280;34170;54.364;18.582;2023-05-24T04:48:29;100082.66;;;18.73;70.69
48364;BME280;34170;54.364;18.582;2023-05-24T04:50:57;100085.81;;;18.76;70.44
48364;BME280;34170;54.364;18.582;2023-05-24T04:53:24;100091.66;;;18.73;70.01
48364;BME280;34170;54.364;18.582;2023-05-24T04:55:52;100092.97;;;18.84;69.93
48364;BME280;34170;54.364;18.582;2023-05-24T04:58:20;100106.63;;;18.91;69.21
48364;BME280;34170;54.364;18.582;2023-05-24T05:00:47;100104.34;;;18.94;68.54
48364;BME280;34170;54.364;18.582;2023-05-24T05:03:15;100103.31;;;19.02;68.58
48364;BME280;34170;54.364;18.582;2023-05-24T05:05:42;100097.38;;;18.85;68.47
48364;BME280;34170;54.364;18.582;2023-05-24T05:08:11;100096.38;;;18.93;69.07
48364;BME280;34170;54.364;18.582;2023-05-24T05:10:38;100108.31;;;18.92;69.74
48364;BME280;34170;54.364;18.582;2023-05-24T05:13:06;100104.94;;;18.90;70.41
48364;BME280;34170;54.364;18.582;2023-05-24T05:15:34;100118.16;;;18.93;70.35
48364;BME280;34170;54.364;18.582;2023-05-24T05:18:01;100111.41;;;18.82;70.34
48364;BME280;34170;54.364;18.582;2023-05-24T05:20:29;100112.28;;;18.89;70.28
48364;BME280;34170;54.364;18.582;2023-05-24T05:22:56;100127.75;;;18.89;68.87
48364;BME280;34170;54.364;18.582;2023-05-24T05:25:24;100112.88;;;18.84;69.34
48364;BME280;34170;54.364;18.582;2023-05-24T05:27:51;100129.06;;;18.93;68.93
48364;BME280;34170;54.364;18.582;2023-05-24T05:30:19;100123.28;;;18.74;69.74
48364;BME280;34170;54.364;18.582;2023-05-24T05:32:46;100133.44;;;18.87;69.77
48364;BME280;34170;54.364;18.582;2023-05-24T05:35:15;100137.72;;;18.68;70.26
48364;BME280;34170;54.364;18.582;2023-05-24T05:37:42;100143.13;;;18.61;70.04
48364;BME280;34170;54.364;18.582;2023-05-24T05:40:10;100147.44;;;18.42;71.52
48364;BME280;34170;54.364;18.582;2023-05-24T05:42:38;100143.13;;;18.55;70.89
48364;BME280;34170;54.364;18.582;2023-05-24T05:45:06;100145.84;;;18.55;70.63
48364;BME280;34170;54.364;18.582;2023-05-24T05:47:33;100144.72;;;18.42;70.62
48364;BME280;34170;54.364;18.582;2023-05-24T05:50:01;100149.28;;;18.35;72.47
48364;BME280;34170;54.364;18.582;2023-05-24T05:52:29;100150.44;;;18.26;73.37
48364;BME280;34170;54.364;18.582;2023-05-24T05:54:56;100154.97;;;18.47;73.14
48364;BME280;34170;54.364;18.582;2023-05-24T05:57:25;100162.44;;;18.66;72.18
48364;BME280;34170;54.364;18.582;2023-05-24T05:59:52;100157.72;;;18.47;73.64
48364;BME280;34170;54.364;18.582;2023-05-24T06:02:20;100160.94;;;18.29;74.36
48364;BME280;34170;54.364;18.582;2023-05-24T06:04:50;100165.50;;;18.22;74.99
48364;BME280;34170;54.364;18.582;2023-05-24T06:07:18;100162.03;;;18.35;74.40
48364;BME280;34170;54.364;18.582;2023-05-24T06:09:46;100167.44;;;18.63;73.25
48364;BME280;34170;54.364;18.582;2023-05-24T06:12:13;100168.78;;;18.80;71.89
48364;BME280;34170;54.364;18.582;2023-05-24T06:14:41;100168.16;;;18.78;70.62
48364;BME280;34170;54.364;18.582;2023-05-24T06:17:09;100177.50;;;19.04;70.97
48364;BME280;34170;54.364;18.582;2023-05-24T06:19:37;100165.59;;;19.05;70.44
48364;BME280;34170;54.364;18.582;2023-05-24T06:22:05;100170.47;;;19.30;68.33
48364;BME280;34170;54.364;18.582;2023-05-24T06:24:32;100186.91;;;19.50;66.65
48364;BME280;34170;54.364;18.582;2023-05-24T06:27:00;100183.41;;;19.96;65.07
48364;BME280;34170;54.364;18.582;2023-05-24T06:29:31;100193.72;;;20.14;63.14
48364;BME280;34170;54.364;18.582;2023-05-24T06:31:59;100190.97;;;20.07;62.78
48364;BME280;34170;54.364;18.582;2023-05-24T06:34:26;100194.28;;;20.56;61.02
48364;BME280;34170;54.364;18.582;2023-05-24T06:36:55;100200.19;;;20.40;61.00
48364;BME280;34170;54.364;18.582;2023-05-24T06:39:24;100191.38;;;20.64;60.39
48364;BME280;34170;54.364;18.582;2023-05-24T06:41:51;100203.66;;;21.00;57.15
48364;BME280;34170;54.364;18.582;2023-05-24T06:44:24;100214.09;;;21.62;54.76
48364;BME280;34170;54.364;18.582;2023-05-24T06:46:58;100220.31;;;21.82;53.52
48364;BME280;34170;54.364;18.582;2023-05-24T06:49:26;100215.84;;;22.45;50.16
48364;BME280;34170;54.364;18.582;2023-05-24T06:51:53;100216.00;;;22.50;49.31
48364;BME280;34170;54.364;18.582;2023-05-24T06:54:21;100223.91;;;23.51;47.03
48364;BME280;34170;54.364;18.582;2023-05-24T06:56:48;100231.56;;;24.33;44.69
48364;BME280;34170;54.364;18.582;2023-05-24T06:59:16;100227.13;;;25.03;43.25
48364;BME280;34170;54.364;18.582;2023-05-24T07:01:43;100233.50;;;24.80;42.06
48364;BME280;34170;54.364;18.582;2023-05-24T07:04:11;100231.81;;;25.72;40.46
48364;BME280;34170;54.364;18.582;2023-05-24T07:06:39;100232.47;;;26.75;37.78
48364;BME280;34170;54.364;18.582;2023-05-24T07:09:07;100243.72;;;26.91;37.06
48364;BME280;34170;54.364;18.582;2023-05-24T07:11:36;100236.84;;;26.03;37.56
48364;BME280;34170;54.364;18.582;2023-05-24T07:14:04;100234.75;;;26.11;36.93
48364;BME280;34170;54.364;18.582;2023-05-24T07:16:31;100241.34;;;26.27;37.08
48364;BME280;34170;54.364;18.582;2023-05-24T07:18:59;100248.34;;;27.46;35.42
48364;BME280;34170;54.364;18.582;2023-05-24T07:21:30;100248.16;;;27.80;34.79
48364;BME280;34170;54.364;18.582;2023-05-24T07:23:58;100252.88;;;26.74;35.59
48364;BME280;34170;54.364;18.582;2023-05-24T07:26:25;100250.16;;;28.49;33.16
48364;BME280;34170;54.364;18.582;2023-05-24T07:28:53;100257.25;;;28.03;34.02
48364;BME280;34170;54.364;18.582;2023-05-24T07:31:20;100272.97;;;29.09;32.10
48364;BME280;34170;54.364;18.582;2023-05-24T07:33:48;100266.44;;;28.78;31.09
48364;BME280;34170;54.364;18.582;2023-05-24T07:36:16;100268.41;;;28.50;32.08
48364;BME280;34170;54.364;18.582;2023-05-24T07:38:44;100266.84;;;28.60;32.64
48364;BME280;34170;54.364;18.582;2023-05-24T07:41:12;100270.84;;;30.98;29.08
48364;BME280;34170;54.364;18.582;2023-05-24T07:43:40;100271.66;;;30.93;28.35
48364;BME280;34170;54.364;18.582;2023-05-24T07:46:07;100265.81;;;29.82;29.31
48364;BME280;34170;54.364;18.582;2023-05-24T07:48:36;100259.78;;;30.47;28.92
48364;BME280;34170;54.364;18.582;2023-05-24T07:51:04;100265.00;;;29.97;30.07
48364;BME280;34170;54.364;18.582;2023-05-24T07:53:32;100262.75;;;31.07;28.25
48364;BME280;34170;54.364;18.582;2023-05-24T07:56:00;100268.38;;;32.41;26.00
48364;BME280;34170;54.364;18.582;2023-05-24T07:58:28;100272.22;;;33.33;25.65
48364;BME280;34170;54.364;18.582;2023-05-24T08:00:55;100274.59;;;33.20;26.20
48364;BME280;34170;54.364;18.582;2023-05-24T08:03:25;100276.66;;;34.15;23.82
48364;BME280;34170;54.364;18.582;2023-05-24T08:05:53;100276.34;;;31.79;26.77
48364;BME280;34170;54.364;18.582;2023-05-24T08:08:21;100274.75;;;30.46;28.36
48364;BME280;34170;54.364;18.582;2023-05-24T08:10:48;100283.50;;;29.13;30.50
48364;BME280;34170;54.364;18.582;2023-05-24T08:13:16;100284.28;;;29.56;29.03
48364;BME280;34170;54.364;18.582;2023-05-24T08:15:43;100285.25;;;30.90;29.26
48364;BME280;34170;54.364;18.582;2023-05-24T08:18:11;100283.19;;;32.36;28.20
48364;BME280;34170;54.364;18.582;2023-05-24T08:20:38;100299.53;;;32.08;26.27
48364;BME280;34170;54.364;18.582;2023-05-24T08:23:07;100300.81;;;32.61;25.36
48364;BME280;34170;54.364;18.582;2023-05-24T08:25:34;100306.22;;;33.30;24.60
48364;BME280;34170;54.364;18.582;2023-05-24T08:28:02;100298.94;;;35.69;22.85
48364;BME280;34170;54.364;18.582;2023-05-24T08:30:29;100305.53;;;32.26;25.04
48364;BME280;34170;54.364;18.582;2023-05-24T08:32:58;100297.50;;;30.73;26.93
48364;BME280;34170;54.364;18.582;2023-05-24T08:35:26;100295.78;;;30.00;28.21
48364;BME280;34170;54.364;18.582;2023-05-24T08:37:56;100303.00;;;29.28;29.44
48364;BME280;34170;54.364;18.582;2023-05-24T08:40:23;100305.94;;;29.64;28.43
48364;BME280;34170;54.364;18.582;2023-05-24T08:42:51;100297.09;;;28.07;31.47
48364;BME280;34170;54.364;18.582;2023-05-24T08:45:20;100299.31;;;26.82;33.59
48364;BME280;34170;54.364;18.582;2023-05-24T08:47:49;100294.56;;;27.34;33.44
48364;BME280;34170;54.364;18.582;2023-05-24T08:50:17;100311.63;;;26.92;34.25
48364;BME280;34170;54.364;18.582;2023-05-24T08:52:45;100302.75;;;26.90;33.87
48364;BME280;34170;54.364;18.582;2023-05-24T08:55:14;100317.38;;;27.46;33.66
48364;BME280;34170;54.364;18.582;2023-05-24T08:57:43;100305.69;;;26.49;34.73
48364;BME280;34170;54.364;18.582;2023-05-24T09:00:12;100317.59;;;27.23;33.98
48364;BME280;34170;54.364;18.582;2023-05-24T09:02:41;100318.34;;;27.84;33.65
48364;BME280;34170;54.364;18.582;2023-05-24T09:05:11;100309.75;;;28.62;31.96
48364;BME280;34170;54.364;18.582;2023-05-24T09:07:42;100319.63;;;28.26;32.42
48364;BME280;34170;54.364;18.582;2023-05-24T09:10:10;100311.25;;;27.88;32.81
48364;BME280;34170;54.364;18.582;2023-05-24T09:12:38;100312.75;;;28.56;32.49
48364;BME280;34170;54.364;18.582;2023-05-24T09:15:06;100318.06;;;28.08;33.20
48364;BME280;34170;54.364;18.582;2023-05-24T09:17:35;100313.72;;;28.12;32.64
48364;BME280;34170;54.364;18.582;2023-05-24T09:20:05;100322.97;;;29.30;30.74
48364;BME280;34170;54.364;18.582;2023-05-24T09:22:36;100326.91;;;29.44;31.23
48364;BME280;34170;54.364;18.582;2023-05-24T09:25:09;100319.72;;;29.54;30.55
48364;BME280;34170;54.364;18.582;2023-05-24T09:27:37;100328.34;;;28.40;31.54
48364;BME280;34170;54.364;18.582;2023-05-24T09:30:14;100314.91;;;28.21;31.55
48364;BME280;34170;54.364;18.582;2023-05-24T09:32:53;100319.50;;;28.10;32.37
48364;BME280;34170;54.364;18.582;2023-05-24T09:35:21;100326.97;;;28.10;32.63
48364;BME280;34170;54.364;18.582;2023-05-24T09:37:53;100331.81;;;28.89;31.68
48364;BME280;34170;54.364;18.582;2023-05-24T09:40:22;100345.16;;;29.45;30.79
48364;BME280;34170;54.364;18.582;2023-05-24T09:43:01;100328.31;;;28.07;33.13
48364;BME280;34170;54.364;18.582;2023-05-24T09:45:29;100337.03;;;29.81;30.95
48364;BME280;34170;54.364;18.582;2023-05-24T09:47:56;100348.47;;;31.39;28.21
48364;BME280;34170;54.364;18.582;2023-05-24T09:50:24;100345.88;;;31.68;27.64
48364;BME280;34170;54.364;18.582;2023-05-24T09:52:53;100335.81;;;31.83;27.42
48364;BME280;34170;54.364;18.582;2023-05-24T09:55:22;100345.44;;;32.01;27.53
48364;BME280;34170;54.364;18.582;2023-05-24T09:58:00;100354.59;;;32.06;26.99
48364;BME280;34170;54.364;18.582;2023-05-24T10:00:31;100344.91;;;31.99;27.43
48364;BME280;34170;54.364;18.582;2023-05-24T10:03:01;100361.06;;;30.70;28.16
48364;BME280;34170;54.364;18.582;2023-05-24T10:05:29;100352.88;;;29.38;30.07
48364;BME280;34170;54.364;18.582;2023-05-24T10:07:58;100357.72;;;31.09;29.01
48364;BME280;34170;54.364;18.582;2023-05-24T10:10:27;100352.06;;;31.45;27.49
48364;BME280;34170;54.364;18.582;2023-05-24T10:12:56;100351.75;;;32.91;26.00
48364;BME280;34170;54.364;18.582;2023-05-24T10:15:24;100357.25;;;32.96;26.17
48364;BME280;34170;54.364;18.582;2023-05-24T10:17:54;100363.22;;;33.18;25.56
48364;BME280;34170;54.364;18.582;2023-05-24T10:20:23;100359.28;;;31.46;27.95
48364;BME280;34170;54.364;18.582;2023-05-24T10:22:53;100351.84;;;31.96;26.77
48364;BME280;34170;54.364;18.582;2023-05-24T10:25:23;100358.84;;;30.87;28.88
48364;BME280;34170;54.364;18.582;2023-05-24T10:27:58;100365.06;;;31.70;27.06
48364;BME280;34170;54.364;18.582;2023-05-24T10:30:39;100354.66;;;30.79;28.13
48364;BME280;34170;54.364;18.582;2023-05-24T10:33:11;100365.19;;;30.67;28.47
48364;BME280;34170;54.364;18.582;2023-05-24T10:35:40;100360.75;;;30.51;28.67
48364;BME280;34170;54.364;18.582;2023-05-24T10:38:09;100361.59;;;29.62;29.89
48364;BME280;34170;54.364;18.582;2023-05-24T10:40:40;100347.31;;;29.33;30.95
48364;BME280;34170;54.364;18.582;2023-05-24T10:43:09;100352.66;;;30.18;29.71
48364;BME280;34170;54.364;18.582;2023-05-24T10:45:38;100357.72;;;30.83;28.75
48364;BME280;34170;54.364;18.582;2023-05-24T10:50:40;100359.56;;;28.62;32.52
48364;BME280;34170;54.364;18.582;2023-05-24T10:53:16;100357.75;;;29.16;31.63
48364;BME280;34170;54.364;18.582;2023-05-24T10:55:57;100352.56;;;29.30;31.83
48364;BME280;34170;54.364;18.582;2023-05-24T10:58:44;100359.09;;;27.72;34.02
48364;BME280;34170;54.364;18.582;2023-05-24T11:01:33;100362.38;;;26.28;36.13
48364;BME280;34170;54.364;18.582;2023-05-24T11:04:08;100370.31;;;25.32;37.49
48364;BME280;34170;54.364;18.582;2023-05-24T11:09:15;100362.44;;;24.15;42.17
48364;BME280;34170;54.364;18.582;2023-05-24T11:11:45;100357.75;;;23.30;42.62
48364;BME280;34170;54.364;18.582;2023-05-24T11:14:18;100354.88;;;22.75;43.36
48364;BME280;34170;54.364;18.582;2023-05-24T11:16:47;100361.66;;;23.41;41.99
48364;BME280;34170;54.364;18.582;2023-05-24T11:21:50;100366.25;;;22.78;43.33
48364;BME280;34170;54.364;18.582;2023-05-24T11:24:19;100376.91;;;23.18;43.21
48364;BME280;34170;54.364;18.582;2023-05-24T11:26:49;100369.75;;;23.54;42.25
48364;BME280;34170;54.364;18.582;2023-05-24T11:29:16;100367.38;;;23.95;42.33
48364;BME280;34170;54.364;18.582;2023-05-24T11:31:48;100368.22;;;23.58;42.03
48364;BME280;34170;54.364;18.582;2023-05-24T11:34:18;100371.34;;;23.44;43.43
48364;BME280;34170;54.364;18.582;2023-05-24T11:36:46;100366.53;;;23.76;41.48
48364;BME280;34170;54.364;18.582;2023-05-24T11:39:14;100375.09;;;23.31;42.23
48364;BME280;34170;54.364;18.582;2023-05-24T11:41:42;100375.84;;;23.38;42.25
48364;BME280;34170;54.364;18.582;2023-05-24T11:44:11;100371.88;;;23.89;41.75
48364;BME280;34170;54.364;18.582;2023-05-24T11:46:39;100366.38;;;23.89;41.13
48364;BME280;34170;54.364;18.582;2023-05-24T11:49:14;100372.84;;;23.76;40.77
48364;BME280;34170;54.364;18.582;2023-05-24T11:51:42;100370.66;;;22.54;42.91
48364;BME280;34170;54.364;18.582;2023-05-24T11:54:10;100371.44;;;22.36;43.70
48364;BME280;34170;54.364;18.582;2023-05-24T11:56:37;100373.59;;;21.76;45.25
48364;BME280;34170;54.364;18.582;2023-05-24T11:59:16;100376.31;;;22.27;44.46
48364;BME280;34170;54.364;18.582;2023-05-24T12:01:43;100364.38;;;22.08;45.20
48364;BME280;34170;54.364;18.582;2023-05-24T12:04:11;100371.47;;;22.30;45.05
48364;BME280;34170;54.364;18.582;2023-05-24T12:06:41;100374.16;;;22.36;44.57
48364;BME280;34170;54.364;18.582;2023-05-24T12:09:10;100375.75;;;22.51;44.70
48364;BME280;34170;54.364;18.582;2023-05-24T12:11:40;100373.88;;;22.06;44.16
48364;BME280;34170;54.364;18.582;2023-05-24T12:14:13;100373.88;;;22.06;45.41
48364;BME280;34170;54.364;18.582;2023-05-24T12:16:42;100375.06;;;22.55;44.81
48364;BME280;34170;54.364;18.582;2023-05-24T12:19:17;100370.91;;;22.46;45.07
48364;BME280;34170;54.364;18.582;2023-05-24T12:21:58;100367.13;;;22.47;43.64
48364;BME280;34170;54.364;18.582;2023-05-24T12:24:26;100365.72;;;22.38;44.25
48364;BME280;34170;54.364;18.582;2023-05-24T12:27:04;100362.09;;;22.69;43.60
48364;BME280;34170;54.364;18.582;2023-05-24T12:29:39;100367.53;;;22.76;43.44
48364;BME280;34170;54.364;18.582;2023-05-24T12:32:09;100358.22;;;22.52;43.76
48364;BME280;34170;54.364;18.582;2023-05-24T12:34:42;100369.22;;;22.77;44.10
48364;BME280;34170;54.364;18.582;2023-05-24T12:37:11;100364.84;;;22.94;43.96
48364;BME280;34170;54.364;18.582;2023-05-24T12:39:40;100371.97;;;22.77;43.27
48364;BME280;34170;54.364;18.582;2023-05-24T12:42:10;100377.16;;;23.10;43.16
48364;BME280;34170;54.364;18.582;2023-05-24T12:44:41;100375.72;;;22.57;44.35
48364;BME280;34170;54.364;18.582;2023-05-24T12:47:08;100372.97;;;22.82;44.91
48364;BME280;34170;54.364;18.582;2023-05-24T12:49:36;100375.81;;;21.99;45.42
48364;BME280;34170;54.364;18.582;2023-05-24T12:52:04;100373.94;;;21.93;47.29
48364;BME280;34170;54.364;18.582;2023-05-24T12:54:33;100378.88;;;22.16;46.40
48364;BME280;34170;54.364;18.582;2023-05-24T12:57:00;100365.34;;;22.34;45.97
48364;BME280;34170;54.364;18.582;2023-05-24T12:59:29;100384.03;;;22.37;46.67
48364;BME280;34170;54.364;18.582;2023-05-24T13:01:57;100371.84;;;21.95;48.53
48364;BME280;34170;54.364;18.582;2023-05-24T13:04:24;100376.22;;;22.02;49.25
48364;BME280;34170;54.364;18.582;2023-05-24T13:06:53;100378.47;;;22.12;48.85
48364;BME280;34170;54.364;18.582;2023-05-24T13:09:21;100369.72;;;21.31;50.94
48364;BME280;34170;54.364;18.582;2023-05-24T13:11:50;100380.94;;;21.82;49.80
48364;BME280;34170;54.364;18.582;2023-05-24T13:14:19;100373.13;;;21.85;49.25